sensor_id;sensor_type;location;lat;lon;timestamp;temperature;humidity
11650;DHT22;5881;48.522;7.682;2023-05-10T00:02:02;13.40;99.90
11650;DHT22;5881;48.522;7.682;2023-05-10T00:04:28;13.30;99.90
11650;DHT22;5881;48.522;7.682;2023-05-10T00:06:54;13.30;99.90
11650;DHT22;5881;48.522;7.682;2023-05-10T00:09:20;13.40;99.90
11650;DHT22;5881;48.522;7.682;2023-05-10T00:11:45;13.40;99.90
11650;DHT22;5881;48.522;7.682;2023-05-10T00:14:11;13.40;99.90
11650;DHT22;5881;48.522;7.682;2023-05-10T00:16:37;13.50;99.90
11650;DHT22;5881;48.522;7.682;2023-05-10T00:19:03;13.50;99.90
11650;DHT22;5881;48.522;7.682;2023-05-10T00:21:28;13.50;99.90
11650;DHT22;5881;48.522;7.682;2023-05-10T00:23:54;13.60;99.90
11650;DHT22;5881;48.522;7.682;2023-05-10T00:26:20;13.50;99.90
11650;DHT22;5881;48.522;7.682;2023-05-10T00:28:45;13.60;99.90
11650;DHT22;5881;48.522;7.682;2023-05-10T00:31:11;13.70;99.90
11650;DHT22;5881;48.522;7.682;2023-05-10T00:33:37;13.60;99.90
11650;DHT22;5881;48.522;7.682;2023-05-10T00:36:02;13.50;99.90
11650;DHT22;5881;48.522;7.682;2023-05-10T00:38:28;13.50;99.90
11650;DHT22;5881;48.522;7.682;2023-05-10T00:40:54;13.50;99.90
11650;DHT22;5881;48.522;7.682;2023-05-10T00:43:19;13.50;99.90
11650;DHT22;5881;48.522;7.682;2023-05-10T00:45:45;13.60;99.90
11650;DHT22;5881;48.522;7.682;2023-05-10T00:48:11;13.60;99.90
11650;DHT22;5881;48.522;7.682;2023-05-10T00:50:37;13.60;99.90
11650;DHT22;5881;48.522;7.682;2023-05-10T00:53:03;13.60;99.90
11650;DHT22;5881;48.522;7.682;2023-05-10T00:55:28;13.50;99.90
11650;DHT22;5881;48.522;7.682;2023-05-10T00:57:54;13.40;99.90
11650;DHT22;5881;48.522;7.682;2023-05-10T01:00:21;13.50;99.90
11650;DHT22;5881;48.522;7.682;2023-05-10T01:02:47;13.40;99.90
11650;DHT22;5881;48.522;7.682;2023-05-10T01:05:13;13.40;99.90
11650;DHT22;5881;48.522;7.682;2023-05-10T01:07:39;13.40;99.90
11650;DHT22;5881;48.522;7.682;2023-05-10T01:10:06;13.30;99.90
11650;DHT22;5881;48.522;7.682;2023-05-10T01:12:34;13.30;99.90
11650;DHT22;5881;48.522;7.682;2023-05-10T01:15:01;13.30;99.90
11650;DHT22;5881;48.522;7.682;2023-05-10T01:17:27;13.30;99.90
11650;DHT22;5881;48.522;7.682;2023-05-10T01:19:53;13.40;99.90
11650;DHT22;5881;48.522;7.682;2023-05-10T01:33:58;13.50;99.90
11650;DHT22;5881;48.522;7.682;2023-05-10T01:36:35;13.50;99.90
11650;DHT22;5881;48.522;7.682;2023-05-10T01:42:08;13.50;99.90
11650;DHT22;5881;48.522;7.682;2023-05-10T01:47:37;13.50;99.90
11650;DHT22;5881;48.522;7.682;2023-05-10T01:50:09;13.50;99.90
11650;DHT22;5881;48.522;7.682;2023-05-10T01:52:42;13.50;99.90
11650;DHT22;5881;48.522;7.682;2023-05-10T01:55:13;13.60;99.90
11650;DHT22;5881;48.522;7.682;2023-05-10T01:57:43;13.40;99.90
11650;DHT22;5881;48.522;7.682;2023-05-10T02:00:10;13.40;99.90
11650;DHT22;5881;48.522;7.682;2023-05-10T02:02:41;13.40;99.90
11650;DHT22;5881;48.522;7.682;2023-05-10T02:05:12;13.40;99.90
11650;DHT22;5881;48.522;7.682;2023-05-10T02:07:39;13.30;99.90
11650;DHT22;5881;48.522;7.682;2023-05-10T02:10:07;13.30;99.90
11650;DHT22;5881;48.522;7.682;2023-05-10T02:12:42;13.30;99.90
11650;DHT22;5881;48.522;7.682;2023-05-10T02:15:10;13.30;99.90
11650;DHT22;5881;48.522;7.682;2023-05-10T02:17:37;13.20;99.90
11650;DHT22;5881;48.522;7.682;2023-05-10T02:20:06;13.20;99.90
11650;DHT22;5881;48.522;7.682;2023-05-10T02:22:32;13.20;99.90
11650;DHT22;5881;48.522;7.682;2023-05-10T02:24:59;13.20;99.90
11650;DHT22;5881;48.522;7.682;2023-05-10T02:27:27;13.30;99.90
11650;DHT22;5881;48.522;7.682;2023-05-10T02:29:53;13.20;99.90
11650;DHT22;5881;48.522;7.682;2023-05-10T02:32:21;13.20;99.90
11650;DHT22;5881;48.522;7.682;2023-05-10T02:34:48;13.20;99.90
11650;DHT22;5881;48.522;7.682;2023-05-10T02:37:19;13.20;99.90
11650;DHT22;5881;48.522;7.682;2023-05-10T02:39:49;13.20;99.90
11650;DHT22;5881;48.522;7.682;2023-05-10T02:42:19;13.20;99.90
11650;DHT22;5881;48.522;7.682;2023-05-10T02:44:49;13.20;99.90
11650;DHT22;5881;48.522;7.682;2023-05-10T02:47:16;13.10;99.90
11650;DHT22;5881;48.522;7.682;2023-05-10T02:49:43;13.10;99.90
11650;DHT22;5881;48.522;7.682;2023-05-10T02:52:08;13.10;99.90
11650;DHT22;5881;48.522;7.682;2023-05-10T02:54:43;13.20;99.90
11650;DHT22;5881;48.522;7.682;2023-05-10T02:57:13;13.20;99.90
11650;DHT22;5881;48.522;7.682;2023-05-10T02:59:40;13.20;99.90
11650;DHT22;5881;48.522;7.682;2023-05-10T03:02:08;13.30;99.90
11650;DHT22;5881;48.522;7.682;2023-05-10T03:04:34;13.30;99.90
11650;DHT22;5881;48.522;7.682;2023-05-10T03:07:00;13.20;99.90
11650;DHT22;5881;48.522;7.682;2023-05-10T03:09:26;13.30;99.90
11650;DHT22;5881;48.522;7.682;2023-05-10T03:12:07;13.30;99.90
11650;DHT22;5881;48.522;7.682;2023-05-10T03:19:43;13.30;99.90
11650;DHT22;5881;48.522;7.682;2023-05-10T03:22:11;13.20;99.90
11650;DHT22;5881;48.522;7.682;2023-05-10T03:24:39;13.20;99.90
11650;DHT22;5881;48.522;7.682;2023-05-10T03:27:07;13.20;99.90
11650;DHT22;5881;48.522;7.682;2023-05-10T03:29:33;13.20;99.90
11650;DHT22;5881;48.522;7.682;2023-05-10T03:32:00;13.20;99.90
11650;DHT22;5881;48.522;7.682;2023-05-10T03:34:26;13.10;99.90
11650;DHT22;5881;48.522;7.682;2023-05-10T03:36:52;13.10;99.90
11650;DHT22;5881;48.522;7.682;2023-05-10T03:39:18;13.00;99.90
11650;DHT22;5881;48.522;7.682;2023-05-10T03:41:43;13.00;99.90
11650;DHT22;5881;48.522;7.682;2023-05-10T03:44:09;13.00;99.90
11650;DHT22;5881;48.522;7.682;2023-05-10T03:46:34;13.00;99.90
11650;DHT22;5881;48.522;7.682;2023-05-10T03:49:00;13.00;99.90
11650;DHT22;5881;48.522;7.682;2023-05-10T03:51:26;13.00;99.90
11650;DHT22;5881;48.522;7.682;2023-05-10T03:53:54;12.90;99.90
11650;DHT22;5881;48.522;7.682;2023-05-10T03:56:20;12.90;99.90
11650;DHT22;5881;48.522;7.682;2023-05-10T03:58:46;12.90;99.90
11650;DHT22;5881;48.522;7.682;2023-05-10T04:01:13;13.00;99.90
11650;DHT22;5881;48.522;7.682;2023-05-10T04:03:39;13.00;99.90
11650;DHT22;5881;48.522;7.682;2023-05-10T04:06:05;12.90;99.90
11650;DHT22;5881;48.522;7.682;2023-05-10T04:08:31;12.90;99.90
11650;DHT22;5881;48.522;7.682;2023-05-10T04:11:10;13.00;99.90
11650;DHT22;5881;48.522;7.682;2023-05-10T04:13:37;12.90;99.90
11650;DHT22;5881;48.522;7.682;2023-05-10T04:16:03;13.00;99.90
11650;DHT22;5881;48.522;7.682;2023-05-10T04:18:29;13.00;99.90
11650;DHT22;5881;48.522;7.682;2023-05-10T04:20:55;13.00;99.90
11650;DHT22;5881;48.522;7.682;2023-05-10T04:23:21;13.10;99.90
11650;DHT22;5881;48.522;7.682;2023-05-10T04:25:46;13.10;99.90
11650;DHT22;5881;48.522;7.682;2023-05-10T04:28:12;13.10;99.90
11650;DHT22;5881;48.522;7.682;2023-05-10T04:30:38;13.10;99.90
11650;DHT22;5881;48.522;7.682;2023-05-10T04:33:04;13.20;99.90
11650;DHT22;5881;48.522;7.682;2023-05-10T04:35:29;13.10;99.90
11650;DHT22;5881;48.522;7.682;2023-05-10T04:37:55;13.10;99.90
11650;DHT22;5881;48.522;7.682;2023-05-10T04:40:21;13.20;99.90
11650;DHT22;5881;48.522;7.682;2023-05-10T04:42:46;13.10;99.90
11650;DHT22;5881;48.522;7.682;2023-05-10T04:45:12;13.10;99.90
11650;DHT22;5881;48.522;7.682;2023-05-10T04:47:40;13.00;99.90
11650;DHT22;5881;48.522;7.682;2023-05-10T04:50:06;12.80;99.90
11650;DHT22;5881;48.522;7.682;2023-05-10T04:52:31;12.90;99.90
11650;DHT22;5881;48.522;7.682;2023-05-10T04:54:57;12.80;99.90
11650;DHT22;5881;48.522;7.682;2023-05-10T04:57:23;12.80;99.90
11650;DHT22;5881;48.522;7.682;2023-05-10T04:59:48;12.90;99.90
11650;DHT22;5881;48.522;7.682;2023-05-10T05:02:14;13.10;99.90
11650;DHT22;5881;48.522;7.682;2023-05-10T05:04:39;12.90;99.90
11650;DHT22;5881;48.522;7.682;2023-05-10T05:07:05;12.90;99.90
11650;DHT22;5881;48.522;7.682;2023-05-10T05:09:30;13.00;99.90
11650;DHT22;5881;48.522;7.682;2023-05-10T05:11:57;13.00;99.90
11650;DHT22;5881;48.522;7.682;2023-05-10T05:14:23;12.90;99.90
11650;DHT22;5881;48.522;7.682;2023-05-10T05:16:51;13.00;99.90
11650;DHT22;5881;48.522;7.682;2023-05-10T05:19:16;13.00;99.90
11650;DHT22;5881;48.522;7.682;2023-05-10T05:21:42;13.00;99.90
11650;DHT22;5881;48.522;7.682;2023-05-10T05:24:08;13.00;99.90
11650;DHT22;5881;48.522;7.682;2023-05-10T05:26:33;13.00;99.90
11650;DHT22;5881;48.522;7.682;2023-05-10T05:28:59;13.10;99.90
11650;DHT22;5881;48.522;7.682;2023-05-10T05:31:25;13.10;99.90
11650;DHT22;5881;48.522;7.682;2023-05-10T05:33:50;13.10;99.90
11650;DHT22;5881;48.522;7.682;2023-05-10T05:36:16;13.20;99.90
11650;DHT22;5881;48.522;7.682;2023-05-10T05:38:42;13.20;99.90
11650;DHT22;5881;48.522;7.682;2023-05-10T05:41:08;13.20;99.90
11650;DHT22;5881;48.522;7.682;2023-05-10T05:43:33;13.20;99.90
11650;DHT22;5881;48.522;7.682;2023-05-10T05:45:59;13.20;99.90
11650;DHT22;5881;48.522;7.682;2023-05-10T05:48:25;13.40;99.90
11650;DHT22;5881;48.522;7.682;2023-05-10T05:50:54;13.30;99.90
11650;DHT22;5881;48.522;7.682;2023-05-10T05:53:20;13.40;99.90
11650;DHT22;5881;48.522;7.682;2023-05-10T05:55:57;13.30;99.90
11650;DHT22;5881;48.522;7.682;2023-05-10T05:58:24;13.30;99.90
11650;DHT22;5881;48.522;7.682;2023-05-10T06:00:50;13.30;99.90
11650;DHT22;5881;48.522;7.682;2023-05-10T06:03:17;13.20;99.90
11650;DHT22;5881;48.522;7.682;2023-05-10T06:05:43;13.40;99.90
11650;DHT22;5881;48.522;7.682;2023-05-10T06:08:09;13.50;99.90
11650;DHT22;5881;48.522;7.682;2023-05-10T06:10:35;13.40;99.90
11650;DHT22;5881;48.522;7.682;2023-05-10T06:13:00;13.50;99.90
11650;DHT22;5881;48.522;7.682;2023-05-10T06:15:27;13.40;99.90
11650;DHT22;5881;48.522;7.682;2023-05-10T06:17:52;13.50;99.90
11650;DHT22;5881;48.522;7.682;2023-05-10T06:20:18;13.50;99.90
11650;DHT22;5881;48.522;7.682;2023-05-10T06:22:43;13.60;99.90
11650;DHT22;5881;48.522;7.682;2023-05-10T06:25:09;13.80;99.90
11650;DHT22;5881;48.522;7.682;2023-05-10T06:27:35;13.90;94.60
11650;DHT22;5881;48.522;7.682;2023-05-10T06:30:01;13.70;1.00
11650;DHT22;5881;48.522;7.682;2023-05-10T06:32:28;13.70;1.00
11650;DHT22;5881;48.522;7.682;2023-05-10T06:34:53;13.70;1.00
11650;DHT22;5881;48.522;7.682;2023-05-10T06:37:19;13.90;1.00
11650;DHT22;5881;48.522;7.682;2023-05-10T06:39:44;13.90;99.90
11650;DHT22;5881;48.522;7.682;2023-05-10T06:42:10;14.30;99.90
11650;DHT22;5881;48.522;7.682;2023-05-10T06:44:36;14.40;99.90
11650;DHT22;5881;48.522;7.682;2023-05-10T06:47:01;15.00;1.00
11650;DHT22;5881;48.522;7.682;2023-05-10T06:49:27;16.30;99.90
11650;DHT22;5881;48.522;7.682;2023-05-10T06:51:53;17.00;99.90
11650;DHT22;5881;48.522;7.682;2023-05-10T06:54:18;18.40;99.90
11650;DHT22;5881;48.522;7.682;2023-05-10T06:56:44;17.90;99.90
11650;DHT22;5881;48.522;7.682;2023-05-10T06:59:10;17.30;99.90
11650;DHT22;5881;48.522;7.682;2023-05-10T07:01:35;16.80;99.90
11650;DHT22;5881;48.522;7.682;2023-05-10T07:04:01;16.40;99.90
11650;DHT22;5881;48.522;7.682;2023-05-10T07:06:26;16.10;99.90
11650;DHT22;5881;48.522;7.682;2023-05-10T07:08:52;16.30;99.90
11650;DHT22;5881;48.522;7.682;2023-05-10T07:11:18;16.60;99.90
11650;DHT22;5881;48.522;7.682;2023-05-10T07:13:43;17.70;99.90
11650;DHT22;5881;48.522;7.682;2023-05-10T07:16:11;18.70;99.90
11650;DHT22;5881;48.522;7.682;2023-05-10T07:18:37;17.60;99.90
11650;DHT22;5881;48.522;7.682;2023-05-10T07:21:03;17.50;99.90
11650;DHT22;5881;48.522;7.682;2023-05-10T07:23:29;17.10;99.90
11650;DHT22;5881;48.522;7.682;2023-05-10T07:25:55;16.70;99.90
11650;DHT22;5881;48.522;7.682;2023-05-10T07:28:23;16.70;99.90
11650;DHT22;5881;48.522;7.682;2023-05-10T07:30:49;16.30;99.90
11650;DHT22;5881;48.522;7.682;2023-05-10T07:33:15;16.00;99.90
11650;DHT22;5881;48.522;7.682;2023-05-10T07:35:42;15.60;99.90
11650;DHT22;5881;48.522;7.682;2023-05-10T07:38:07;15.20;99.90
11650;DHT22;5881;48.522;7.682;2023-05-10T07:40:33;15.00;99.90
11650;DHT22;5881;48.522;7.682;2023-05-10T07:42:59;15.10;99.90
11650;DHT22;5881;48.522;7.682;2023-05-10T07:45:27;15.20;99.90
11650;DHT22;5881;48.522;7.682;2023-05-10T07:47:52;15.30;99.90
11650;DHT22;5881;48.522;7.682;2023-05-10T07:50:18;15.20;99.90
11650;DHT22;5881;48.522;7.682;2023-05-10T07:52:43;15.20;99.90
11650;DHT22;5881;48.522;7.682;2023-05-10T07:55:09;15.10;99.90
11650;DHT22;5881;48.522;7.682;2023-05-10T07:57:35;14.90;1.00
11650;DHT22;5881;48.522;7.682;2023-05-10T08:00:02;14.00;99.90
11650;DHT22;5881;48.522;7.682;2023-05-10T08:02:28;13.90;99.90
11650;DHT22;5881;48.522;7.682;2023-05-10T08:04:53;14.00;99.90
11650;DHT22;5881;48.522;7.682;2023-05-10T08:07:19;14.10;1.00
11650;DHT22;5881;48.522;7.682;2023-05-10T08:09:44;13.90;1.00
11650;DHT22;5881;48.522;7.682;2023-05-10T08:12:10;14.10;99.90
11650;DHT22;5881;48.522;7.682;2023-05-10T08:14:36;14.40;1.00
11650;DHT22;5881;48.522;7.682;2023-05-10T08:17:04;14.80;99.90
11650;DHT22;5881;48.522;7.682;2023-05-10T08:19:30;15.80;99.90
11650;DHT22;5881;48.522;7.682;2023-05-10T08:21:55;16.00;99.90
11650;DHT22;5881;48.522;7.682;2023-05-10T08:24:22;16.60;99.90
11650;DHT22;5881;48.522;7.682;2023-05-10T08:26:48;18.90;99.90
11650;DHT22;5881;48.522;7.682;2023-05-10T08:29:14;18.10;99.90
11650;DHT22;5881;48.522;7.682;2023-05-10T08:31:40;18.10;99.90
11650;DHT22;5881;48.522;7.682;2023-05-10T08:34:05;19.60;99.90
11650;DHT22;5881;48.522;7.682;2023-05-10T08:36:31;17.80;99.90
11650;DHT22;5881;48.522;7.682;2023-05-10T08:38:57;18.30;99.90
11650;DHT22;5881;48.522;7.682;2023-05-10T08:41:24;19.80;99.90
11650;DHT22;5881;48.522;7.682;2023-05-10T08:43:54;20.30;99.90
11650;DHT22;5881;48.522;7.682;2023-05-10T08:46:21;19.70;99.90
11650;DHT22;5881;48.522;7.682;2023-05-10T08:48:48;18.80;99.90
11650;DHT22;5881;48.522;7.682;2023-05-10T08:51:19;17.90;99.90
11650;DHT22;5881;48.522;7.682;2023-05-10T08:53:45;18.10;99.90
11650;DHT22;5881;48.522;7.682;2023-05-10T08:56:11;18.00;99.90
11650;DHT22;5881;48.522;7.682;2023-05-10T08:58:38;18.60;99.90
11650;DHT22;5881;48.522;7.682;2023-05-10T09:01:05;19.40;99.90
11650;DHT22;5881;48.522;7.682;2023-05-10T09:03:31;20.20;99.90
11650;DHT22;5881;48.522;7.682;2023-05-10T09:05:57;20.70;7.60
11650;DHT22;5881;48.522;7.682;2023-05-10T09:08:26;20.90;1.00
11650;DHT22;5881;48.522;7.682;2023-05-10T09:10:52;22.30;2.80
11650;DHT22;5881;48.522;7.682;2023-05-10T09:13:19;21.90;1.00
11650;DHT22;5881;48.522;7.682;2023-05-10T09:15:45;22.00;1.00
11650;DHT22;5881;48.522;7.682;2023-05-10T09:18:11;22.80;1.00
11650;DHT22;5881;48.522;7.682;2023-05-10T09:20:36;21.60;1.00
11650;DHT22;5881;48.522;7.682;2023-05-10T09:23:02;22.00;1.00
11650;DHT22;5881;48.522;7.682;2023-05-10T09:25:28;22.80;1.00
11650;DHT22;5881;48.522;7.682;2023-05-10T09:27:53;24.30;1.00
11650;DHT22;5881;48.522;7.682;2023-05-10T09:30:28;23.40;1.00
11650;DHT22;5881;48.522;7.682;2023-05-10T09:32:55;23.40;1.00
11650;DHT22;5881;48.522;7.682;2023-05-10T09:35:24;22.30;1.00
11650;DHT22;5881;48.522;7.682;2023-05-10T09:37:53;22.60;1.00
11650;DHT22;5881;48.522;7.682;2023-05-10T09:40:23;23.30;1.00
11650;DHT22;5881;48.522;7.682;2023-05-10T09:43:01;23.80;1.00
11650;DHT22;5881;48.522;7.682;2023-05-10T09:45:29;23.60;1.00
11650;DHT22;5881;48.522;7.682;2023-05-10T09:47:55;23.80;1.00
11650;DHT22;5881;48.522;7.682;2023-05-10T09:50:21;23.50;1.00
11650;DHT22;5881;48.522;7.682;2023-05-10T09:53:14;23.40;1.00
11650;DHT22;5881;48.522;7.682;2023-05-10T09:55:44;24.70;1.00
11650;DHT22;5881;48.522;7.682;2023-05-10T09:58:11;25.30;1.00
11650;DHT22;5881;48.522;7.682;2023-05-10T10:00:47;24.20;1.00
11650;DHT22;5881;48.522;7.682;2023-05-10T10:03:20;23.50;1.00
11650;DHT22;5881;48.522;7.682;2023-05-10T10:05:47;22.00;1.00
11650;DHT22;5881;48.522;7.682;2023-05-10T10:08:13;21.40;1.00
11650;DHT22;5881;48.522;7.682;2023-05-10T10:10:39;21.30;1.00
11650;DHT22;5881;48.522;7.682;2023-05-10T10:13:06;20.50;1.00
11650;DHT22;5881;48.522;7.682;2023-05-10T10:15:32;20.60;1.00
11650;DHT22;5881;48.522;7.682;2023-05-10T10:17:58;19.90;1.00
11650;DHT22;5881;48.522;7.682;2023-05-10T10:20:25;19.10;1.00
11650;DHT22;5881;48.522;7.682;2023-05-10T10:22:51;18.30;1.00
11650;DHT22;5881;48.522;7.682;2023-05-10T10:25:17;19.90;1.00
11650;DHT22;5881;48.522;7.682;2023-05-10T10:35:58;21.40;1.00
11650;DHT22;5881;48.522;7.682;2023-05-10T10:38:58;20.60;1.00
11650;DHT22;5881;48.522;7.682;2023-05-10T10:41:34;20.20;1.00
11650;DHT22;5881;48.522;7.682;2023-05-10T10:47:21;20.50;1.00
11650;DHT22;5881;48.522;7.682;2023-05-10T10:49:51;19.70;1.00
11650;DHT22;5881;48.522;7.682;2023-05-10T10:52:46;20.40;1.00
11650;DHT22;5881;48.522;7.682;2023-05-10T10:55:19;21.50;1.00
11650;DHT22;5881;48.522;7.682;2023-05-10T11:00:24;24.30;1.00
11650;DHT22;5881;48.522;7.682;2023-05-10T11:03:04;23.00;1.00
11650;DHT22;5881;48.522;7.682;2023-05-10T11:08:29;22.60;1.00
11650;DHT22;5881;48.522;7.682;2023-05-10T11:13:34;21.90;1.00
11650;DHT22;5881;48.522;7.682;2023-05-10T11:16:11;23.40;1.00
11650;DHT22;5881;48.522;7.682;2023-05-10T11:18:37;23.30;1.00
11650;DHT22;5881;48.522;7.682;2023-05-10T11:21:03;22.50;1.00
11650;DHT22;5881;48.522;7.682;2023-05-10T11:26:09;21.20;1.00
11650;DHT22;5881;48.522;7.682;2023-05-10T11:28:41;22.10;1.00
11650;DHT22;5881;48.522;7.682;2023-05-10T11:31:06;21.10;1.00
11650;DHT22;5881;48.522;7.682;2023-05-10T11:33:42;20.60;1.00
11650;DHT22;5881;48.522;7.682;2023-05-10T11:36:14;20.10;1.00
11650;DHT22;5881;48.522;7.682;2023-05-10T11:38:40;19.80;1.00
11650;DHT22;5881;48.522;7.682;2023-05-10T11:41:08;19.50;1.00
11650;DHT22;5881;48.522;7.682;2023-05-10T11:43:34;19.40;1.00
11650;DHT22;5881;48.522;7.682;2023-05-10T11:46:02;19.70;1.00
11650;DHT22;5881;48.522;7.682;2023-05-10T11:48:29;20.60;1.00
11650;DHT22;5881;48.522;7.682;2023-05-10T11:50:55;21.20;1.00
11650;DHT22;5881;48.522;7.682;2023-05-10T11:53:22;22.10;1.00
11650;DHT22;5881;48.522;7.682;2023-05-10T11:55:48;21.70;1.00
11650;DHT22;5881;48.522;7.682;2023-05-10T11:58:14;21.30;1.00
11650;DHT22;5881;48.522;7.682;2023-05-10T12:00:39;21.10;1.00
11650;DHT22;5881;48.522;7.682;2023-05-10T12:03:05;20.10;1.00
11650;DHT22;5881;48.522;7.682;2023-05-10T12:05:34;19.50;1.00
11650;DHT22;5881;48.522;7.682;2023-05-10T12:08:15;19.40;1.00
11650;DHT22;5881;48.522;7.682;2023-05-10T12:10:40;19.80;1.00
11650;DHT22;5881;48.522;7.682;2023-05-10T12:13:11;19.50;1.00
11650;DHT22;5881;48.522;7.682;2023-05-10T12:15:37;19.30;1.00
11650;DHT22;5881;48.522;7.682;2023-05-10T12:18:03;19.30;1.00
11650;DHT22;5881;48.522;7.682;2023-05-10T12:20:29;18.70;1.00
11650;DHT22;5881;48.522;7.682;2023-05-10T12:22:56;19.10;1.00
11650;DHT22;5881;48.522;7.682;2023-05-10T12:25:24;19.70;1.00
11650;DHT22;5881;48.522;7.682;2023-05-10T12:27:57;20.40;1.00
11650;DHT22;5881;48.522;7.682;2023-05-10T12:30:24;21.00;1.00
11650;DHT22;5881;48.522;7.682;2023-05-10T12:32:50;21.30;1.00
11650;DHT22;5881;48.522;7.682;2023-05-10T12:35:16;21.00;1.00
11650;DHT22;5881;48.522;7.682;2023-05-10T12:37:43;20.90;1.00
11650;DHT22;5881;48.522;7.682;2023-05-10T12:40:10;20.60;1.00
11650;DHT22;5881;48.522;7.682;2023-05-10T12:42:38;20.40;1.00
11650;DHT22;5881;48.522;7.682;2023-05-10T12:45:04;20.30;1.00
11650;DHT22;5881;48.522;7.682;2023-05-10T12:47:34;20.20;1.00
11650;DHT22;5881;48.522;7.682;2023-05-10T12:50:00;20.50;1.00
11650;DHT22;5881;48.522;7.682;2023-05-10T12:52:27;20.80;1.00
11650;DHT22;5881;48.522;7.682;2023-05-10T12:54:53;21.00;1.00
11650;DHT22;5881;48.522;7.682;2023-05-10T12:57:21;20.90;1.00
11650;DHT22;5881;48.522;7.682;2023-05-10T12:59:47;20.80;1.00
11650;DHT22;5881;48.522;7.682;2023-05-10T13:02:13;20.90;1.00
11650;DHT22;5881;48.522;7.682;2023-05-10T13:04:40;21.00;1.00
11650;DHT22;5881;48.522;7.682;2023-05-10T13:07:06;21.00;1.00
11650;DHT22;5881;48.522;7.682;2023-05-10T13:09:32;21.50;1.00
11650;DHT22;5881;48.522;7.682;2023-05-10T13:11:57;21.20;1.00
11650;DHT22;5881;48.522;7.682;2023-05-10T13:14:24;20.10;1.00
11650;DHT22;5881;48.522;7.682;2023-05-10T13:16:50;19.90;1.00
11650;DHT22;5881;48.522;7.682;2023-05-10T13:19:16;19.60;1.00
11650;DHT22;5881;48.522;7.682;2023-05-10T13:21:42;19.70;1.00
11650;DHT22;5881;48.522;7.682;2023-05-10T13:24:08;19.80;1.00
11650;DHT22;5881;48.522;7.682;2023-05-10T13:26:33;19.40;1.00
11650;DHT22;5881;48.522;7.682;2023-05-10T13:28:59;18.90;1.00
11650;DHT22;5881;48.522;7.682;2023-05-10T13:31:25;18.00;1.00
11650;DHT22;5881;48.522;7.682;2023-05-10T13:33:50;17.30;1.00
11650;DHT22;5881;48.522;7.682;2023-05-10T13:36:16;17.30;1.00
11650;DHT22;5881;48.522;7.682;2023-05-10T13:38:41;17.30;1.00
11650;DHT22;5881;48.522;7.682;2023-05-10T13:41:07;18.00;1.00
11650;DHT22;5881;48.522;7.682;2023-05-10T13:43:32;18.40;1.00
11650;DHT22;5881;48.522;7.682;2023-05-10T13:45:58;18.90;1.00
11650;DHT22;5881;48.522;7.682;2023-05-10T13:48:24;19.30;1.00
11650;DHT22;5881;48.522;7.682;2023-05-10T13:50:49;19.10;1.00
11650;DHT22;5881;48.522;7.682;2023-05-10T13:53:15;19.50;1.00
11650;DHT22;5881;48.522;7.682;2023-05-10T13:55:41;19.80;1.00
11650;DHT22;5881;48.522;7.682;2023-05-10T13:58:07;19.60;1.00
11650;DHT22;5881;48.522;7.682;2023-05-10T14:00:32;19.60;1.00
11650;DHT22;5881;48.522;7.682;2023-05-10T14:02:58;19.70;1.00
11650;DHT22;5881;48.522;7.682;2023-05-10T14:05:23;19.80;1.00
11650;DHT22;5881;48.522;7.682;2023-05-10T14:07:50;19.70;1.00
11650;DHT22;5881;48.522;7.682;2023-05-10T14:10:16;19.00;1.00
11650;DHT22;5881;48.522;7.682;2023-05-10T14:12:41;18.10;1.00
11650;DHT22;5881;48.522;7.682;2023-05-10T14:15:07;18.00;1.00
11650;DHT22;5881;48.522;7.682;2023-05-10T14:17:35;17.90;1.00
11650;DHT22;5881;48.522;7.682;2023-05-10T14:20:01;17.40;1.00
11650;DHT22;5881;48.522;7.682;2023-05-10T14:22:27;17.50;1.00
11650;DHT22;5881;48.522;7.682;2023-05-10T14:24:53;17.50;1.00
11650;DHT22;5881;48.522;7.682;2023-05-10T14:27:19;17.20;1.00
11650;DHT22;5881;48.522;7.682;2023-05-10T14:29:44;17.10;1.00
11650;DHT22;5881;48.522;7.682;2023-05-10T14:32:10;16.80;1.00
11650;DHT22;5881;48.522;7.682;2023-05-10T14:34:36;16.60;1.00
11650;DHT22;5881;48.522;7.682;2023-05-10T14:37:01;16.40;1.00
11650;DHT22;5881;48.522;7.682;2023-05-10T14:39:27;16.10;9.20
11650;DHT22;5881;48.522;7.682;2023-05-10T14:41:55;16.60;1.00
11650;DHT22;5881;48.522;7.682;2023-05-10T14:44:20;17.30;1.00
11650;DHT22;5881;48.522;7.682;2023-05-10T14:46:46;17.20;1.00
11650;DHT22;5881;48.522;7.682;2023-05-10T14:49:12;17.80;1.00
11650;DHT22;5881;48.522;7.682;2023-05-10T14:51:38;18.20;1.00
11650;DHT22;5881;48.522;7.682;2023-05-10T14:54:03;18.40;1.00
11650;DHT22;5881;48.522;7.682;2023-05-10T14:56:29;18.40;1.00
11650;DHT22;5881;48.522;7.682;2023-05-10T14:58:54;18.20;1.00
11650;DHT22;5881;48.522;7.682;2023-05-10T15:01:20;17.90;1.00
11650;DHT22;5881;48.522;7.682;2023-05-10T15:03:46;18.30;1.00
11650;DHT22;5881;48.522;7.682;2023-05-10T15:06:14;18.20;1.00
11650;DHT22;5881;48.522;7.682;2023-05-10T15:08:40;18.20;1.00
11650;DHT22;5881;48.522;7.682;2023-05-10T15:11:05;18.40;1.00
11650;DHT22;5881;48.522;7.682;2023-05-10T15:13:31;18.30;1.00
11650;DHT22;5881;48.522;7.682;2023-05-10T15:15:56;18.00;1.00
11650;DHT22;5881;48.522;7.682;2023-05-10T15:18:22;17.80;1.00
11650;DHT22;5881;48.522;7.682;2023-05-10T15:20:47;17.70;1.00
11650;DHT22;5881;48.522;7.682;2023-05-10T15:23:13;17.80;1.00
11650;DHT22;5881;48.522;7.682;2023-05-10T15:25:38;18.00;1.00
11650;DHT22;5881;48.522;7.682;2023-05-10T15:28:04;18.20;1.00
11650;DHT22;5881;48.522;7.682;2023-05-10T15:30:30;17.50;1.00
11650;DHT22;5881;48.522;7.682;2023-05-10T15:32:56;17.10;1.00
11650;DHT22;5881;48.522;7.682;2023-05-10T15:35:22;16.80;1.00
11650;DHT22;5881;48.522;7.682;2023-05-10T15:37:48;16.60;1.00
11650;DHT22;5881;48.522;7.682;2023-05-10T15:40:14;16.90;1.00
11650;DHT22;5881;48.522;7.682;2023-05-10T15:42:40;17.10;1.00
11650;DHT22;5881;48.522;7.682;2023-05-10T15:45:06;17.40;1.00
11650;DHT22;5881;48.522;7.682;2023-05-10T15:47:32;17.70;1.00
11650;DHT22;5881;48.522;7.682;2023-05-10T15:49:58;17.70;1.00
11650;DHT22;5881;48.522;7.682;2023-05-10T15:52:24;17.70;1.00
11650;DHT22;5881;48.522;7.682;2023-05-10T15:54:50;17.40;1.00
11650;DHT22;5881;48.522;7.682;2023-05-10T15:57:16;17.10;1.00
11650;DHT22;5881;48.522;7.682;2023-05-10T15:59:41;17.20;1.00
11650;DHT22;5881;48.522;7.682;2023-05-10T16:02:08;17.10;1.00
11650;DHT22;5881;48.522;7.682;2023-05-10T16:04:35;17.20;1.00
11650;DHT22;5881;48.522;7.682;2023-05-10T16:07:01;17.00;1.00
11650;DHT22;5881;48.522;7.682;2023-05-10T16:09:27;16.90;1.00
11650;DHT22;5881;48.522;7.682;2023-05-10T16:11:52;17.00;1.00
11650;DHT22;5881;48.522;7.682;2023-05-10T16:14:18;17.10;1.00
11650;DHT22;5881;48.522;7.682;2023-05-10T16:16:46;17.60;1.00
11650;DHT22;5881;48.522;7.682;2023-05-10T16:19:12;18.00;1.00
11650;DHT22;5881;48.522;7.682;2023-05-10T16:21:37;18.00;1.00
11650;DHT22;5881;48.522;7.682;2023-05-10T16:24:03;18.10;1.00
11650;DHT22;5881;48.522;7.682;2023-05-10T16:26:29;17.90;1.00
11650;DHT22;5881;48.522;7.682;2023-05-10T16:28:55;17.90;1.00
11650;DHT22;5881;48.522;7.682;2023-05-10T16:31:20;18.00;1.00
11650;DHT22;5881;48.522;7.682;2023-05-10T16:33:46;17.90;1.00
11650;DHT22;5881;48.522;7.682;2023-05-10T16:36:12;17.50;1.00